Time;durP1;ratioP1;P1;durP2;ratioP2;P2;SDS_P1;SDS_P2;PMS_P1;PMS_P2;Temp;Humidity;BMP_temperature;BMP_pressure;BME280_temperature;BME280_humidity;BME280_pressure;Samples;Min_cycle;Max_cycle;Signal;HPM_P1;HPM_P2
2022/07/20 00:01:07;;;;;;;3.97;2.58;;;24.80;57.90;;;;;;6102480;23;19913;-75
2022/07/20 00:03:33;;;;;;;6.82;2.53;;;24.80;58.00;;;;;;6102422;23;20425;-75
2022/07/20 00:05:59;;;;;;;;;;;24.70;58.30;;;;;;6101136;23;20092;-76
2022/07/20 00:11:20;;;;;;;11.57;3.20;;;24.50;58.90;;;;;;6124500;23;20022;-76
2022/07/20 00:13:58;;;;;;;9.93;2.90;;;24.50;59.10;;;;;;6125757;23;20014;-77
2022/07/20 00:16:26;;;;;;;11.80;3.08;;;24.40;59.50;;;;;;6126901;23;20337;-76
2022/07/20 00:18:51;;;;;;;6.20;2.80;;;24.50;59.30;;;;;;6102092;23;20014;-75
2022/07/20 00:21:17;;;;;;;;;;;24.40;59.30;;;;;;6102695;23;20448;-74
2022/07/20 00:23:43;;;;;;;12.98;3.15;;;24.30;59.60;;;;;;6126640;23;19936;-75
2022/07/20 00:26:09;;;;;;;;;;;24.30;59.90;;;;;;6102568;23;20010;-76
2022/07/20 00:28:35;;;;;;;8.15;3.10;;;24.10;59.80;;;;;;6101658;23;19913;-75
2022/07/20 00:31:00;;;;;;;;;;;24.10;60.20;;;;;;6126437;23;20097;-77
2022/07/20 00:33:26;;;;;;;12.57;3.20;;;24.10;60.40;;;;;;6101842;23;20011;-76
2022/07/20 00:35:52;;;;;;;;;;;24.00;60.20;;;;;;6102361;23;20452;-76
2022/07/20 00:38:18;;;;;;;6.88;3.10;;;24.00;60.70;;;;;;6101974;23;19913;-77
2022/07/20 00:40:44;;;;;;;;;;;23.80;60.80;;;;;;6102247;23;20049;-76
2022/07/20 00:43:09;;;;;;;8.38;3.28;;;23.80;60.80;;;;;;6104425;23;19913;-74
2022/07/20 00:45:35;;;;;;;;;;;23.80;61.40;;;;;;6134362;23;20036;-75
2022/07/20 00:48:01;;;;;;;9.82;3.22;;;23.70;61.40;;;;;;6104494;23;19913;-74
2022/07/20 00:50:27;;;;;;;;;;;23.70;61.30;;;;;;6102225;23;20022;-75
2022/07/20 00:52:52;;;;;;;10.55;3.22;;;23.70;61.60;;;;;;6101803;23;19919;-75
2022/07/20 00:55:18;;;;;;;;;;;23.60;61.10;;;;;;6126303;23;20029;-76
2022/07/20 00:57:44;;;;;;;10.30;3.13;;;23.60;61.20;;;;;;6125621;23;20259;-74
2022/07/20 01:00:10;;;;;;;;;;;23.50;61.50;;;;;;6101296;23;20290;-76
2022/07/20 01:02:36;;;;;;;7.88;3.80;;;23.50;61.80;;;;;;6101706;23;19971;-75
2022/07/20 01:05:03;;;;;;;5.95;3.10;;;23.50;61.30;;;;;;6101185;23;20018;-77
2022/07/20 01:07:28;;;;;;;9.35;2.88;;;23.50;61.40;;;;;;6100522;23;20328;-76
2022/07/20 01:09:54;;;;;;;;;;;23.50;61.50;;;;;;6125839;23;20016;-76
2022/07/20 01:12:20;;;;;;;8.52;3.28;;;23.40;61.80;;;;;;6125650;23;19913;-76
2022/07/20 01:14:45;;;;;;;;;;;23.40;61.70;;;;;;6126300;23;20425;-76
2022/07/20 01:17:11;;;;;;;7.00;3.25;;;23.40;62.00;;;;;;6099406;23;19960;-76
2022/07/20 01:19:37;;;;;;;10.88;3.40;;;23.30;61.90;;;;;;6125299;23;20325;-74
2022/07/20 01:22:03;;;;;;;6.85;3.08;;;23.30;62.00;;;;;;6125126;23;20010;-76
2022/07/20 01:24:29;;;;;;;;;;;23.30;62.00;;;;;;6126002;23;20014;-75
2022/07/20 01:26:55;;;;;;;7.20;3.10;;;23.20;62.60;;;;;;6125722;23;19913;-76
2022/07/20 01:29:21;;;;;;;;;;;23.20;62.00;;;;;;6125977;23;20045;-74
2022/07/20 01:31:47;;;;;;;7.95;3.47;;;23.20;62.10;;;;;;6124797;23;19913;-75
2022/07/20 01:34:12;;;;;;;8.10;3.15;;;23.20;61.90;;;;;;6101316;23;20045;-75
2022/07/20 01:36:38;;;;;;;;;;;23.20;61.90;;;;;;6102053;23;20018;-74
2022/07/20 01:39:04;;;;;;;12.05;3.00;;;23.20;62.10;;;;;;6100631;23;19923;-74
2022/07/20 01:41:29;;;;;;;;;;;23.20;61.90;;;;;;6125043;23;20041;-75
2022/07/20 01:43:55;;;;;;;9.65;3.45;;;23.20;61.90;;;;;;6124172;23;20308;-76
2022/07/20 01:46:20;;;;;;;;;;;23.20;61.40;;;;;;6126072;23;20013;-78
2022/07/20 01:48:46;;;;;;;7.20;3.53;;;23.20;61.60;;;;;;6125371;23;19920;-75
2022/07/20 01:51:12;;;;;;;7.43;3.42;;;23.20;61.40;;;;;;6101503;23;20013;-79
2022/07/20 01:53:37;;;;;;;10.57;3.20;;;23.20;61.70;;;;;;6100355;23;20017;-74
2022/07/20 01:56:03;;;;;;;7.78;2.92;;;23.20;61.40;;;;;;6101382;23;20024;-75
2022/07/20 01:58:29;;;;;;;;;;;23.10;61.40;;;;;;6101459;23;20068;-75
2022/07/20 02:00:55;;;;;;;11.05;3.55;;;23.10;61.60;;;;;;6101212;23;19912;-74
2022/07/20 02:03:20;;;;;;;6.55;3.13;;;23.10;61.60;;;;;;6126302;23;20029;-78
2022/07/20 02:05:46;;;;;;;7.72;3.05;;;23.00;61.40;;;;;;6100612;23;20025;-76
2022/07/20 02:08:12;;;;;;;6.18;3.13;;;23.10;61.50;;;;;;6101148;23;20014;-79
2022/07/20 02:10:38;;;;;;;;;;;23.10;61.10;;;;;;6101617;23;20033;-79
2022/07/20 02:13:03;;;;;;;10.82;3.25;;;23.10;60.90;;;;;;6125224;23;19917;-75
2022/07/20 02:18:13;;;;;;;7.88;3.38;;;23.20;60.50;;;;;;6125722;23;19923;-76
2022/07/20 02:20:40;;;;;;;6.95;3.30;;;23.20;60.50;;;;;;6129846;23;20010;-76
2022/07/20 02:23:08;;;;;;;8.07;3.55;;;23.20;60.40;;;;;;6131151;23;20070;-74
2022/07/20 02:25:36;;;;;;;9.75;3.53;;;23.30;60.30;;;;;;6102542;23;20333;-76
2022/07/20 02:28:03;;;;;;;7.65;3.20;;;23.20;60.40;;;;;;6099878;23;20461;-75
2022/07/20 02:30:28;;;;;;;12.43;3.35;;;23.10;60.70;;;;;;6125052;23;20328;-76
2022/07/20 02:32:54;;;;;;;12.18;3.70;;;23.10;61.00;;;;;;6100568;23;20006;-78
2022/07/20 02:35:20;;;;;;;5.30;3.17;;;23.10;60.80;;;;;;6100827;23;20010;-74
2022/07/20 02:37:45;;;;;;;;;;;23.10;60.90;;;;;;6101343;23;20006;-76
2022/07/20 02:40:11;;;;;;;8.02;3.20;;;23.10;61.00;;;;;;6124980;23;19909;-76
2022/07/20 02:42:37;;;;;;;;;;;23.10;61.20;;;;;;6125316;23;20093;-75
2022/07/20 02:45:03;;;;;;;6.30;3.38;;;23.00;60.90;;;;;;6102154;23;19909;-78
2022/07/20 02:47:28;;;;;;;;;;;23.10;60.90;;;;;;6127478;23;20014;-77
2022/07/20 02:49:54;;;;;;;5.88;3.30;;;23.10;60.70;;;;;;6127163;23;19912;-74
2022/07/20 02:52:19;;;;;;;;;;;23.10;60.60;;;;;;6126961;23;20092;-75
2022/07/20 02:54:45;;;;;;;7.53;3.40;;;23.10;60.80;;;;;;6102340;23;19912;-73
2022/07/20 02:57:11;;;;;;;7.22;3.60;;;23.10;60.40;;;;;;6127121;23;20053;-74
2022/07/20 02:59:36;;;;;;;9.52;3.67;;;23.10;60.30;;;;;;6102346;23;20329;-74
2022/07/20 03:02:03;;;;;;;7.97;3.28;;;23.20;60.20;;;;;;6126719;23;20125;-77
2022/07/20 03:04:29;;;;;;;10.30;3.78;;;23.10;60.60;;;;;;6103313;23;20014;-77
2022/07/20 03:06:55;;;;;;;8.27;3.40;;;23.00;60.60;;;;;;6131858;23;20084;-76
2022/07/20 03:09:20;;;;;;;12.43;3.90;;;23.10;60.80;;;;;;6132391;23;20052;-77
2022/07/20 03:11:46;;;;;;;;;;;22.90;61.30;;;;;;6108288;23;20048;-77
2022/07/20 03:14:11;;;;;;;17.70;3.75;;;22.90;61.50;;;;;;6131536;23;19975;-76
2022/07/20 03:16:37;;;;;;;9.77;3.55;;;22.80;62.40;;;;;;6132148;23;20009;-78
2022/07/20 03:19:05;;;;;;;12.07;3.63;;;22.80;62.10;;;;;;6107760;23;20029;-75
2022/07/20 03:21:31;;;;;;;6.95;3.50;;;22.70;62.00;;;;;;6158402;23;20013;-76
2022/07/20 03:23:57;;;;;;;;;;;22.70;61.70;;;;;;6108180;23;20013;-78
2022/07/20 03:26:22;;;;;;;7.50;3.60;;;22.80;61.70;;;;;;6107604;23;19955;-77
2022/07/20 03:28:48;;;;;;;9.02;3.63;;;22.70;61.90;;;;;;6107175;23;20443;-77
2022/07/20 03:31:14;;;;;;;11.82;3.60;;;22.60;62.30;;;;;;6107536;23;20024;-76
2022/07/20 03:33:39;;;;;;;13.57;3.88;;;22.60;62.50;;;;;;6131347;23;20009;-75
2022/07/20 03:36:05;;;;;;;;;;;22.50;62.50;;;;;;6132272;23;20484;-75
2022/07/20 03:38:31;;;;;;;9.80;3.50;;;22.40;63.00;;;;;;6131689;23;20354;-78
2022/07/20 03:40:56;;;;;;;9.73;3.70;;;22.40;63.00;;;;;;6107322;23;20024;-74
2022/07/20 03:43:25;;;;;;;10.80;4.07;;;22.30;63.10;;;;;;6083439;23;20052;-76
2022/07/20 03:45:52;;;;;;;9.35;3.78;;;22.20;63.30;;;;;;6107289;23;20024;-78
2022/07/20 03:48:18;;;;;;;11.05;4.30;;;22.20;63.30;;;;;;6131544;23;20013;-76
2022/07/20 03:50:46;;;;;;;11.00;4.15;;;22.20;63.50;;;;;;6107013;23;20027;-77
2022/07/20 03:53:12;;;;;;;12.95;3.90;;;22.10;63.80;;;;;;6131426;23;20061;-77
2022/07/20 03:55:40;;;;;;;8.18;4.00;;;22.00;63.90;;;;;;6107341;23;20096;-75
2022/07/20 03:58:06;;;;;;;9.38;4.03;;;22.00;64.20;;;;;;6089181;23;20013;-75
2022/07/20 04:00:32;;;;;;;6.55;3.65;;;22.10;63.70;;;;;;6113594;23;20444;-76
2022/07/20 04:02:58;;;;;;;9.05;3.65;;;22.00;64.20;;;;;;6107145;23;20021;-77
2022/07/20 04:05:23;;;;;;;;;;;21.90;65.00;;;;;;6126591;23;20094;-75
2022/07/20 04:07:49;;;;;;;13.93;4.18;;;21.80;66.00;;;;;;6077763;23;19995;-75
2022/07/20 04:10:15;;;;;;;10.35;4.15;;;21.70;66.50;;;;;;6126621;23;20020;-76
2022/07/20 04:12:40;;;;;;;7.72;3.88;;;21.60;66.30;;;;;;6128022;23;20369;-76
2022/07/20 04:15:07;;;;;;;8.27;4.22;;;21.60;66.40;;;;;;6102120;23;20018;-76
2022/07/20 04:17:32;;;;;;;7.70;4.18;;;21.50;66.90;;;;;;6101911;23;20333;-67
2022/07/20 04:19:58;;;;;;;10.68;4.95;;;21.40;67.50;;;;;;6127815;23;20053;-68
2022/07/20 04:22:24;;;;;;;8.82;4.32;;;21.30;68.60;;;;;;6126321;23;20026;-68
2022/07/20 04:24:50;;;;;;;7.22;4.38;;;21.20;69.00;;;;;;6126467;23;20426;-67
2022/07/20 04:27:21;;;;;;;10.40;4.70;;;21.10;69.30;;;;;;6126436;23;20021;-70
2022/07/20 04:29:47;;;;;;;15.55;4.57;;;21.00;70.00;;;;;;6126413;23;20316;-70
2022/07/20 04:32:12;;;;;;;9.82;4.70;;;21.00;69.90;;;;;;6126221;23;20018;-70
2022/07/20 04:34:38;;;;;;;8.50;4.63;;;21.00;70.30;;;;;;6125940;23;20468;-71
2022/07/20 04:37:04;;;;;;;10.55;4.53;;;21.00;70.60;;;;;;6102125;23;20053;-71
2022/07/20 04:39:29;;;;;;;6.72;4.45;;;21.00;71.10;;;;;;6126404;23;20018;-71
2022/07/20 04:41:55;;;;;;;6.55;4.32;;;21.00;70.90;;;;;;6126259;23;20020;-70
2022/07/20 04:44:21;;;;;;;12.48;4.57;;;21.00;71.20;;;;;;6150872;23;20025;-71
2022/07/20 04:46:46;;;;;;;10.35;4.63;;;21.00;71.70;;;;;;6126312;23;20362;-70
2022/07/20 04:49:12;;;;;;;9.05;4.93;;;21.10;71.30;;;;;;6101840;23;20014;-70
2022/07/20 04:51:38;;;;;;;15.77;4.72;;;21.10;71.80;;;;;;6125873;23;20013;-71
2022/07/20 04:54:04;;;;;;;11.02;4.88;;;21.30;71.40;;;;;;6124989;23;20013;-71
2022/07/20 04:56:30;;;;;;;9.45;4.32;;;21.30;71.50;;;;;;6100654;23;20025;-70
2022/07/20 04:58:56;;;;;;;16.58;4.50;;;21.30;71.90;;;;;;6125509;23;20014;-72
2022/07/20 05:01:23;;;;;;;11.35;4.82;;;21.40;71.60;;;;;;6150091;23;20016;-72
2022/07/20 05:03:49;;;;;;;11.13;4.68;;;21.50;71.90;;;;;;6125599;23;20105;-71
2022/07/20 05:06:15;;;;;;;10.07;4.32;;;21.50;71.50;;;;;;6125047;23;20097;-70
2022/07/20 05:08:41;;;;;;;15.05;4.53;;;21.70;71.50;;;;;;6125738;23;20049;-71
2022/07/20 05:11:07;;;;;;;;;;;21.80;70.50;;;;;;6101837;23;20072;-70
2022/07/20 05:13:32;;;;;;;7.47;4.40;;;21.90;70.30;;;;;;6101240;23;20209;-70
2022/07/20 05:15:58;;;;;;;7.20;4.82;;;22.10;69.80;;;;;;6125858;23;20021;-70
2022/07/20 05:18:24;;;;;;;12.63;4.47;;;22.20;69.30;;;;;;6100939;23;20421;-71
2022/07/20 05:20:49;;;;;;;9.27;3.90;;;22.30;69.30;;;;;;6126010;23;20429;-70
2022/07/20 05:23:15;;;;;;;9.07;4.43;;;22.40;69.50;;;;;;6101560;23;20093;-70
2022/07/20 05:25:41;;;;;;;;;;;22.40;69.50;;;;;;6125952;23;20434;-70
2022/07/20 05:28:07;;;;;;;8.98;4.38;;;22.50;69.00;;;;;;6127198;23;19940;-71
2022/07/20 05:30:33;;;;;;;;;;;22.60;69.00;;;;;;6126117;23;20093;-71
2022/07/20 05:32:58;;;;;;;12.52;4.72;;;22.60;70.00;;;;;;6125218;23;20019;-71
2022/07/20 05:35:24;;;;;;;8.80;4.88;;;22.70;70.30;;;;;;6125572;23;20017;-71
2022/07/20 05:37:50;;;;;;;;;;;22.70;70.40;;;;;;6127644;23;20068;-71
2022/07/20 05:40:16;;;;;;;11.98;4.20;;;22.90;70.40;;;;;;6127153;23;19943;-70
2022/07/20 05:42:42;;;;;;;21.55;4.57;;;23.10;70.20;;;;;;6101351;23;20005;-69
2022/07/20 07:21:53;;;;;;;34.80;14.48;;;28.00;80.90;;;;;;6178266;23;20025;-70
2022/07/20 07:24:56;;;;;;;27.98;15.10;;;28.20;80.60;;;;;;6185318;23;20092;-70
2022/07/20 07:27:40;;;;;;;38.45;15.35;;;28.30;79.80;;;;;;6123870;23;20423;-70
2022/07/20 07:32:58;;;;;;;29.73;16.02;;;28.30;80.30;;;;;;6123566;23;20017;-69
2022/07/20 07:42:49;;;;;;;27.52;15.30;;;28.60;79.80;;;;;;6185631;23;20059;-67
2022/07/20 07:45:15;;;;;;;34.30;15.50;;;28.80;79.60;;;;;;6135364;23;20096;-67
2022/07/20 07:47:42;;;;;;;31.58;16.23;;;28.80;79.00;;;;;;6110340;23;20024;-68
2022/07/20 07:50:15;;;;;;;38.80;17.00;;;28.90;78.90;;;;;;6135244;23;20104;-71
2022/07/20 09:11:52;;;;;;;30.40;11.82;;;28.20;79.00;;;;;;6186336;23;20020;-73
2022/07/20 09:18:57;;;;;;;36.08;10.75;;;28.30;79.90;;;;;;6185909;23;20008;-74
2022/07/20 09:55:01;;;;;;;24.55;8.98;;;28.80;73.50;;;;;;6144355;23;20335;-73
2022/07/20 10:24:47;;;;;;;18.45;7.00;;;29.20;71.90;;;;;;6068101;23;20066;-77
2022/07/20 10:27:13;;;;;;;19.55;6.80;;;29.20;70.70;;;;;;6021375;23;20014;-76
2022/07/20 10:29:46;;;;;;;26.42;8.00;;;29.20;71.30;;;;;;6042980;23;20456;-75
2022/07/20 10:32:22;;;;;;;21.00;7.10;;;29.30;71.20;;;;;;6042980;23;20042;-76
2022/07/20 10:34:50;;;;;;;18.63;6.55;;;29.30;69.00;;;;;;6043102;23;20082;-75
2022/07/20 10:37:42;;;;;;;18.88;6.85;;;29.30;68.60;;;;;;6043435;23;20007;-76
2022/07/20 10:40:16;;;;;;;15.15;6.60;;;29.50;69.40;;;;;;6067110;23;20018;-75
2022/07/20 10:42:46;;;;;;;18.52;6.82;;;29.50;70.00;;;;;;6091381;23;20054;-74
2022/07/20 10:45:33;;;;;;;19.55;7.43;;;29.50;69.00;;;;;;6068543;23;20432;-75
2022/07/20 10:48:16;;;;;;;15.63;6.68;;;29.50;69.10;;;;;;6042785;23;20081;-75
2022/07/20 10:50:49;;;;;;;20.08;7.95;;;29.70;70.10;;;;;;6019104;23;20111;-74
2022/07/20 10:53:14;;;;;;;17.65;7.45;;;29.70;70.80;;;;;;6066866;23;20019;-76
2022/07/20 10:55:52;;;;;;;18.85;7.03;;;29.90;69.90;;;;;;6042990;23;20042;-75
2022/07/20 10:58:31;;;;;;;18.40;7.80;;;29.90;69.10;;;;;;6042949;23;20007;-77
2022/07/20 11:02:08;;;;;;;18.27;7.00;;;29.80;66.80;;;;;;6043481;23;20070;-77
2022/07/20 11:04:49;;;;;;;15.25;6.82;;;29.80;67.30;;;;;;6068397;23;20082;-77
2022/07/20 11:07:43;;;;;;;15.38;6.63;;;29.70;67.50;;;;;;6021461;23;20329;-77
2022/07/20 11:10:27;;;;;;;13.63;6.28;;;29.80;67.70;;;;;;6044727;23;20014;-79
2022/07/20 11:13:00;;;;;;;18.02;7.15;;;29.70;67.60;;;;;;6021202;23;20011;-78
2022/07/20 11:15:49;;;;;;;19.08;6.25;;;29.60;65.30;;;;;;6069189;23;20096;-76
2022/07/20 11:18:27;;;;;;;17.70;6.60;;;29.60;66.40;;;;;;6044562;23;20011;-78
2022/07/20 11:20:56;;;;;;;16.20;5.85;;;29.50;68.20;;;;;;6068596;23;20330;-76
2022/07/20 11:23:25;;;;;;;15.75;4.90;;;29.40;66.10;;;;;;6020941;23;20015;-76
2022/07/20 11:25:56;;;;;;;15.82;4.57;;;29.20;65.70;;;;;;6069194;23;20034;-77
2022/07/20 11:28:32;;;;;;;12.88;5.05;;;29.20;65.20;;;;;;6044384;23;20011;-76
2022/07/20 11:31:08;;;;;;;15.43;4.78;;;29.20;64.70;;;;;;5998009;23;20022;-77
2022/07/20 11:33:38;;;;;;;12.20;4.57;;;29.40;65.30;;;;;;6020430;23;20011;-78
2022/07/20 11:36:13;;;;;;;16.33;4.55;;;29.50;64.90;;;;;;6021459;23;20015;-76
2022/07/20 11:38:51;;;;;;;15.40;4.72;;;29.60;63.80;;;;;;6068962;23;20022;-76
2022/07/20 11:41:21;;;;;;;8.95;3.97;;;29.50;64.10;;;;;;6070161;23;20011;-77
2022/07/20 11:43:48;;;;;;;13.85;4.05;;;29.70;64.60;;;;;;6044519;23;20071;-76
2022/07/20 11:46:17;;;;;;;10.20;3.45;;;29.90;64.10;;;;;;6044690;23;20021;-77
2022/07/20 11:49:20;;;;;;;10.23;3.75;;;30.00;64.30;;;;;;6020817;23;20303;-80
2022/07/20 11:59:35;;;;;;;10.57;4.20;;;30.00;62.10;;;;;;5980649;24;20168;-75
2022/07/20 12:02:02;;;;;;;10.30;4.03;;;29.90;61.70;;;;;;5955498;24;20043;-77
2022/07/20 12:04:28;;;;;;;9.38;4.20;;;30.00;62.10;;;;;;5957175;24;20077;-77
2022/07/20 12:10:16;;;;;;;15.25;4.90;;;30.00;61.20;;;;;;6044327;23;20022;-76
2022/07/20 12:12:44;;;;;;;11.98;5.30;;;30.20;62.20;;;;;;6043928;23;20019;-75
2022/07/20 12:15:47;;;;;;;13.85;5.70;;;30.20;63.70;;;;;;6042352;23;20006;-80
2022/07/20 12:18:16;;;;;;;18.58;5.85;;;30.30;64.20;;;;;;6019050;23;20081;-78
2022/07/20 12:21:01;;;;;;;12.73;5.32;;;30.30;64.20;;;;;;6067534;23;20453;-76
2022/07/20 12:27:28;;;;;;;15.93;5.03;;;30.20;62.80;;;;;;6041265;23;20077;-77
2022/07/20 12:33:35;;;;;;;9.77;4.90;;;30.20;61.70;;;;;;6041452;23;20404;-77
2022/07/20 12:36:06;;;;;;;11.82;5.20;;;30.10;62.30;;;;;;5981924;23;20073;-78
2022/07/20 12:38:37;;;;;;;15.55;6.63;;;29.90;62.10;;;;;;5984671;23;20248;-78
2022/07/20 12:45:41;;;;;;;14.48;6.65;;;30.20;64.40;;;;;;5970120;23;20014;-75
2022/07/20 12:48:13;;;;;;;18.73;7.68;;;30.10;66.20;;;;;;5984673;23;20022;-78
2022/07/20 12:50:48;;;;;;;15.57;6.53;;;30.00;66.00;;;;;;5984613;23;20170;-73
2022/07/20 12:53:43;;;;;;;15.73;7.43;;;30.00;66.80;;;;;;5984278;23;20012;-72
2022/07/20 12:56:10;;;;;;;19.20;7.68;;;29.80;67.00;;;;;;5983492;23;20012;-77
2022/07/20 12:58:36;;;;;;;22.63;7.35;;;29.80;67.60;;;;;;5984592;23;20016;-74
2022/07/20 13:01:03;;;;;;;17.88;7.35;;;29.80;67.80;;;;;;6024297;23;20065;-73
2022/07/20 13:03:44;;;;;;;15.95;6.82;;;29.80;68.30;;;;;;6018877;23;20090;-72
2022/07/20 13:06:10;;;;;;;21.02;6.97;;;29.70;69.10;;;;;;6019072;23;20433;-75
2022/07/20 13:08:35;;;;;;;14.68;6.57;;;29.80;69.40;;;;;;6042388;23;20015;-74
2022/07/20 13:11:40;;;;;;;17.17;6.97;;;29.90;69.70;;;;;;6068282;23;20014;-73
2022/07/20 13:14:17;;;;;;;15.98;6.63;;;30.20;69.40;;;;;;6022670;23;20421;-74
2022/07/20 13:16:47;;;;;;;21.92;8.38;;;30.20;66.40;;;;;;6018627;23;20022;-75
2022/07/20 13:19:13;;;;;;;16.95;6.95;;;30.20;67.20;;;;;;6042114;23;20011;-75
2022/07/20 13:21:40;;;;;;;21.23;7.50;;;30.30;66.90;;;;;;6042563;23;20019;-76
2022/07/20 13:24:06;;;;;;;16.17;6.72;;;30.50;67.60;;;;;;6066454;23;20023;-76
2022/07/20 13:26:32;;;;;;;12.32;5.68;;;30.50;66.30;;;;;;6066264;23;20015;-75
2022/07/20 13:28:58;;;;;;;12.70;5.50;;;30.40;66.40;;;;;;6019732;23;20022;-74
2022/07/20 13:31:25;;;;;;;27.67;6.40;;;30.50;64.50;;;;;;6069444;23;20443;-76
2022/07/20 13:33:50;;;;;;;10.45;6.00;;;30.50;64.90;;;;;;6044033;23;20015;-77
2022/07/20 13:36:16;;;;;;;11.07;6.18;;;30.30;63.80;;;;;;6020212;23;20180;-77
2022/07/20 13:38:42;;;;;;;12.80;6.43;;;30.00;62.80;;;;;;6043609;23;20098;-77
2022/07/20 13:41:08;;;;;;;16.25;5.63;;;29.90;64.00;;;;;;6043420;23;20019;-77
2022/07/20 13:43:34;;;;;;;11.98;5.57;;;29.90;64.60;;;;;;6019560;23;20025;-78
2022/07/20 13:45:59;;;;;;;16.83;5.60;;;29.90;64.70;;;;;;6043458;23;20497;-75
2022/07/20 13:48:25;;;;;;;15.55;5.75;;;30.00;64.20;;;;;;6043592;23;20015;-75
2022/07/20 13:50:59;;;;;;;11.02;5.30;;;30.20;63.50;;;;;;6042629;23;20018;-77
2022/07/20 13:56:46;;;;;;;11.07;5.00;;;30.10;63.20;;;;;;6021182;23;20441;-77
2022/07/20 13:59:12;;;;;;;11.48;5.03;;;29.80;62.80;;;;;;6018916;23;20086;-79
2022/07/20 14:01:43;;;;;;;11.43;4.22;;;29.70;63.60;;;;;;6019766;23;20046;-78
2022/07/20 14:09:04;;;;;;;12.18;3.70;;;30.00;62.20;;;;;;6000313;23;20433;-75
2022/07/20 14:11:58;;;;;;;7.07;4.00;;;29.80;61.60;;;;;;5967429;23;20524;-74
2022/07/20 14:14:23;;;;;;;7.57;3.65;;;29.60;61.50;;;;;;6041970;23;20018;-75
2022/07/20 14:16:49;;;;;;;7.20;3.30;;;29.40;62.70;;;;;;6042538;23;20010;-76
2022/07/20 14:19:15;;;;;;;11.63;3.67;;;29.20;62.70;;;;;;6042698;23;20025;-78
2022/07/20 14:21:47;;;;;;;7.25;3.38;;;29.00;63.30;;;;;;6066431;23;20014;-80
2022/07/20 14:24:13;;;;;;;7.65;3.63;;;28.80;63.80;;;;;;6066874;23;20015;-81
2022/07/20 14:26:50;;;;;;;6.78;4.05;;;28.80;64.40;;;;;;6019069;23;20015;-79
2022/07/20 14:29:16;;;;;;;8.80;3.85;;;28.90;64.90;;;;;;6019618;23;20089;-78
2022/07/20 14:32:18;;;;;;;;;;;;;;;;;;;;;
2022/07/20 14:34:47;;;;;;;10.05;4.15;;;29.20;65.10;;;;;;6042131;23;20021;-79
2022/07/20 14:37:16;;;;;;;10.25;3.90;;;29.40;64.20;;;;;;6019232;23;20085;-77
2022/07/20 14:39:42;;;;;;;13.27;4.10;;;29.90;64.90;;;;;;6018683;23;20039;-77
2022/07/20 14:42:52;;;;;;;10.13;4.05;;;30.00;64.40;;;;;;6042082;23;20065;-75
2022/07/20 14:56:52;;;;;;;9.90;4.53;;;28.80;66.70;;;;;;5980430;23;20010;-75
2022/07/20 14:59:18;;;;;;;13.07;4.68;;;28.50;67.90;;;;;;5957258;24;20008;-79
2022/07/20 15:01:44;;;;;;;16.25;5.07;;;28.40;68.20;;;;;;5957264;24;20069;-77
2022/07/20 15:04:09;;;;;;;12.15;4.53;;;28.30;68.40;;;;;;6022842;23;20011;-76
2022/07/20 15:06:36;;;;;;;14.85;4.88;;;28.40;69.20;;;;;;6089886;23;20014;-77
2022/07/20 15:09:05;;;;;;;13.15;4.97;;;28.20;69.40;;;;;;6066586;23;20017;-77
2022/07/20 15:11:31;;;;;;;19.48;5.40;;;28.30;69.90;;;;;;6042450;23;20447;-78
2022/07/20 15:13:56;;;;;;;17.05;5.72;;;28.20;70.40;;;;;;6019150;23;20018;-77
2022/07/20 15:16:22;;;;;;;12.85;5.30;;;28.10;71.40;;;;;;6042454;23;20017;-77
2022/07/20 15:22:54;;;;;;;10.70;4.00;;;28.00;69.80;;;;;;6028635;23;20067;-78
2022/07/20 15:25:44;;;;;;;9.10;3.72;;;27.90;70.30;;;;;;6014611;23;20019;-75
2022/07/20 15:28:21;;;;;;;8.95;2.90;;;28.00;69.50;;;;;;6013688;23;20022;-78
2022/07/20 15:30:55;;;;;;;9.35;2.13;;;27.90;67.10;;;;;;5991305;23;20371;-77
2022/07/20 15:36:26;;;;;;;6.18;1.90;;;28.00;66.30;;;;;;6013830;23;20422;-72
2022/07/20 16:04:41;;;;;;;6.82;1.85;;;31.10;59.40;;;;;;5930712;23;20095;-71
2022/07/20 16:07:07;;;;;;;5.07;1.52;;;31.10;59.30;;;;;;6015495;23;20062;-70
2022/07/20 16:09:52;;;;;;;5.22;1.50;;;30.80;58.50;;;;;;6039041;23;20007;-72
2022/07/20 16:15:53;;;;;;;11.93;2.08;;;30.40;59.80;;;;;;5987337;23;20019;-69
2022/07/20 16:18:21;;;;;;;6.50;1.85;;;30.50;61.10;;;;;;6015318;23;20043;-70
2022/07/20 16:20:49;;;;;;;5.30;1.60;;;30.80;60.30;;;;;;6038808;23;20104;-71
2022/07/20 16:23:15;;;;;;;7.70;1.83;;;31.10;59.90;;;;;;6015431;23;20027;-70
2022/07/20 16:25:40;;;;;;;6.95;1.67;;;31.20;57.50;;;;;;6015574;23;20007;-70
2022/07/20 16:28:06;;;;;;;17.50;1.40;;;31.20;57.30;;;;;;6015652;23;20019;-70
2022/07/20 16:30:32;;;;;;;8.23;1.52;;;31.30;57.20;;;;;;6040657;23;20473;-70
2022/07/20 16:32:58;;;;;;;4.45;1.17;;;31.20;56.90;;;;;;6015374;23;20023;-70
2022/07/20 16:35:24;;;;;;;6.82;1.35;;;31.40;56.20;;;;;;6015607;23;20066;-72
2022/07/20 16:37:55;;;;;;;7.15;1.48;;;30.70;56.00;;;;;;6014622;23;20023;-72
2022/07/20 16:40:23;;;;;;;8.93;1.58;;;30.30;56.80;;;;;;6015415;23;20322;-72
2022/07/20 16:42:54;;;;;;;4.80;1.30;;;29.80;57.20;;;;;;6014857;23;20427;-72
2022/07/20 16:45:26;;;;;;;6.95;2.05;;;29.60;57.70;;;;;;6040240;23;20016;-72
2022/07/20 16:47:55;;;;;;;6.30;1.60;;;29.20;59.20;;;;;;6009935;23;20023;-70
2022/07/20 16:50:20;;;;;;;7.82;1.48;;;29.20;59.80;;;;;;5991315;23;20446;-69
2022/07/20 16:52:46;;;;;;;5.85;1.42;;;29.20;60.10;;;;;;6040553;23;20075;-70
2022/07/20 16:55:12;;;;;;;8.68;1.65;;;29.00;60.80;;;;;;5991625;23;20026;-69
2022/07/20 16:57:43;;;;;;;6.18;1.92;;;28.90;61.20;;;;;;6014976;23;20046;-73
2022/07/20 17:00:39;;;;;;;6.60;1.80;;;28.90;61.50;;;;;;6031561;23;20007;-72
2022/07/20 17:03:05;;;;;;;7.95;1.73;;;28.80;61.50;;;;;;6014386;23;20057;-70
2022/07/20 17:05:34;;;;;;;8.38;1.90;;;28.60;61.70;;;;;;6014747;23;20007;-71
2022/07/20 17:08:03;;;;;;;4.57;1.45;;;28.50;62.30;;;;;;5992210;23;20094;-70
2022/07/20 17:10:53;;;;;;;8.35;1.60;;;28.10;63.30;;;;;;6049661;23;20015;-70
2022/07/20 17:13:33;;;;;;;6.88;1.85;;;28.00;64.30;;;;;;6016670;23;20034;-71
2022/07/20 17:16:06;;;;;;;6.20;1.92;;;27.80;65.00;;;;;;6015050;23;20022;-68
2022/07/20 17:18:34;;;;;;;7.30;2.00;;;27.70;65.00;;;;;;6014900;23;20086;-70
2022/07/20 17:21:05;;;;;;;8.23;1.90;;;27.30;65.40;;;;;;6036321;23;20019;-70
2022/07/20 17:23:36;;;;;;;9.85;2.40;;;27.30;67.20;;;;;;6042972;23;20023;-71
2022/07/20 17:26:04;;;;;;;6.53;2.20;;;27.20;67.90;;;;;;6042918;23;20067;-69
2022/07/20 17:28:30;;;;;;;8.18;2.15;;;27.10;68.30;;;;;;6043586;23;20346;-71
2022/07/20 17:30:56;;;;;;;9.10;2.35;;;27.00;69.60;;;;;;6042958;23;20019;-71
2022/07/20 17:33:22;;;;;;;11.13;2.60;;;26.90;70.40;;;;;;6043240;23;20007;-71
2022/07/20 17:36:07;;;;;;;9.25;2.70;;;26.70;70.30;;;;;;6042762;23;20030;-72
2022/07/20 17:39:17;;;;;;;16.63;3.38;;;26.70;72.10;;;;;;6012618;23;20090;-71
2022/07/20 17:42:36;;;;;;;;;;;;;;;;;;;;;
2022/07/20 17:45:12;;;;;;;10.00;3.03;;;26.30;73.80;;;;;;6009517;23;20007;-70
2022/07/20 17:47:58;;;;;;;9.77;2.55;;;26.10;74.90;;;;;;6013044;23;20023;-70
2022/07/20 17:50:27;;;;;;;12.07;2.40;;;26.00;74.40;;;;;;6029365;23;20011;-68
2022/07/20 17:52:53;;;;;;;12.90;2.80;;;25.90;74.20;;;;;;6037065;23;20015;-71
2022/07/20 17:55:29;;;;;;;10.32;2.47;;;25.80;75.40;;;;;;6037157;23;20054;-70
2022/07/20 17:58:09;;;;;;;11.18;2.63;;;25.80;75.70;;;;;;6036712;23;20071;-71
2022/07/20 18:00:50;;;;;;;;;;;;;;;;;;;;;
2022/07/20 18:03:24;;;;;;;8.32;2.08;;;25.70;75.20;;;;;;6036555;23;20051;-70
2022/07/20 18:05:50;;;;;;;8.90;2.35;;;25.70;75.10;;;;;;6013273;23;20094;-68
2022/07/20 18:08:17;;;;;;;8.20;2.47;;;25.60;75.30;;;;;;6060553;23;20460;-69
2022/07/20 18:11:21;;;;;;;8.57;2.30;;;25.50;75.40;;;;;;6039952;23;20098;-70
2022/07/20 18:14:13;;;;;;;8.15;2.42;;;25.50;76.10;;;;;;6022797;23;20007;-70
2022/07/20 18:17:29;;;;;;;10.23;2.38;;;25.40;76.50;;;;;;5969285;24;20424;-70
2022/07/20 18:20:33;;;;;;;10.45;2.85;;;25.30;76.80;;;;;;5944899;24;20013;-70
2022/07/20 18:59:22;;;;;;;12.52;3.67;;;24.30;86.80;;;;;;5979211;23;20015;-69
2022/07/20 19:02:43;;;;;;;;;;;;;;;;;;;;;
2022/07/20 19:06:32;;;;;;;;;;;;;;;;;;;;;
2022/07/20 19:09:54;;;;;;;11.00;3.83;;;24.00;88.10;;;;;;5890860;24;20085;-70
2022/07/20 19:12:28;;;;;;;;;;;23.90;89.40;;;;;;5901670;24;20472;-68
2022/07/20 19:15:59;;;;;;;9.45;4.03;;;23.80;89.20;;;;;;5901776;24;19915;-69
2022/07/20 19:18:33;;;;;;;11.80;4.35;;;23.90;89.10;;;;;;6012896;23;20015;-68
2022/07/20 19:21:01;;;;;;;11.20;4.20;;;23.70;88.90;;;;;;6032790;23;20015;-67
2022/07/20 19:24:00;;;;;;;15.13;4.00;;;23.70;89.00;;;;;;6014594;23;20098;-67
2022/07/20 19:41:10;;;;;;;9.50;3.80;;;23.40;91.10;;;;;;5981700;24;20059;-73
2022/07/20 19:44:24;;;;;;;12.13;4.35;;;23.30;91.30;;;;;;5958235;24;20020;-71